createdAt,value
2022-11-03T02:20:34.992Z,25.63
2022-11-03T02:23:31.573Z,24.83
2022-11-03T02:25:59.271Z,25.70
2022-11-03T02:28:31.076Z,27.60
2022-11-03T02:31:17.376Z,27.52
2022-11-03T02:33:54.869Z,27.50
2022-11-03T02:36:32.861Z,28.08
2022-11-03T02:39:11.882Z,26.20
2022-11-03T02:41:39.890Z,28.30
2022-11-03T02:44:14.895Z,27.65
2022-11-03T02:46:43.926Z,29.88
2022-11-03T02:49:11.730Z,30.05
2022-11-03T02:51:39.859Z,27.27
2022-11-03T02:54:23.723Z,28.35
2022-11-03T02:57:01.147Z,28.85
2022-11-03T02:59:31.247Z,27.90
2022-11-03T03:02:09.369Z,20.27
2022-11-03T03:04:43.849Z,27.88
2022-11-03T03:07:15.231Z,27.85
2022-11-03T03:10:10.847Z,27.95
2022-11-03T03:12:40.277Z,31.13
2022-11-03T03:15:08.795Z,29.17
2022-11-03T03:18:06.611Z,28.80
2022-11-03T03:20:42.145Z,28.65
2022-11-03T03:23:14.941Z,29.55
2022-11-03T03:25:50.175Z,34.13
2022-11-03T03:28:31.297Z,33.40
2022-11-03T03:30:59.072Z,21.30
2022-11-03T03:35:54.914Z,29.83
2022-11-03T03:38:25.476Z,27.15
2022-11-03T03:40:55.452Z,27.85
2022-11-03T03:43:23.676Z,29.23
2022-11-03T03:45:52.710Z,28.55
2022-11-03T03:48:20.583Z,27.02
2022-11-03T03:50:49.975Z,22.55
2022-11-03T03:53:18.928Z,28.38
2022-11-03T03:55:49.740Z,27.38
2022-11-03T03:58:17.704Z,29.48
2022-11-03T04:00:45.635Z,28.73
2022-11-03T04:03:16.703Z,29.25
2022-11-03T04:05:45.021Z,28.83
2022-11-03T04:08:14.585Z,27.67
2022-11-03T04:11:02.433Z,27.95
2022-11-03T04:13:48.850Z,27.27
2022-11-03T04:16:36.990Z,28.23
2022-11-03T04:19:25.079Z,27.33
2022-11-03T04:22:11.207Z,27.00
2022-11-03T04:24:39.461Z,26.48
2022-11-03T04:27:37.101Z,29.33
2022-11-03T04:30:16.618Z,30.85
2022-11-03T04:32:45.477Z,31.17
2022-11-03T04:35:24.528Z,28.10
2022-11-03T04:38:02.480Z,24.20
2022-11-03T04:40:30.509Z,27.58
2022-11-03T04:42:58.719Z,26.20
2022-11-03T04:45:31.727Z,25.85
2022-11-03T04:48:00.630Z,25.95
2022-11-03T04:50:28.818Z,26.05
2022-11-03T04:52:58.774Z,27.20
2022-11-03T04:55:27.040Z,25.10
2022-11-03T04:58:00.950Z,25.48
2022-11-03T05:00:29.068Z,24.30
2022-11-03T05:02:57.746Z,24.45
2022-11-03T05:05:26.743Z,26.25
2022-11-03T05:07:56.202Z,24.58
2022-11-03T05:10:28.648Z,24.95
2022-11-03T05:12:58.109Z,24.55
2022-11-03T05:15:35.883Z,24.70
2022-11-03T05:18:28.903Z,23.13
2022-11-03T05:21:00.472Z,23.90
2022-11-03T05:25:57.841Z,23.13
2022-11-03T05:28:28.853Z,23.55
2022-11-03T05:30:56.787Z,24.38
2022-11-03T05:33:29.484Z,23.90
2022-11-03T05:35:59.870Z,24.70
2022-11-03T05:38:30.882Z,39.72
2022-11-03T05:40:59.290Z,24.80
2022-11-03T05:43:27.407Z,22.95
2022-11-03T05:45:57.422Z,24.10
2022-11-03T05:48:35.560Z,24.80
2022-11-03T05:51:21.582Z,26.48
2022-11-03T05:53:57.633Z,25.55
2022-11-03T05:56:25.596Z,25.63
2022-11-03T05:58:57.440Z,26.73
2022-11-03T06:01:33.413Z,24.90
2022-11-03T06:04:23.257Z,25.23
2022-11-03T06:06:56.483Z,24.35
2022-11-03T06:09:24.860Z,26.50
2022-11-03T06:11:58.073Z,138.18
2022-11-03T06:14:27.807Z,63.17
2022-11-03T06:17:02.034Z,24.10
2022-11-03T06:19:34.685Z,25.67
2022-11-03T06:22:08.732Z,25.35
2022-11-03T06:24:36.708Z,26.20
2022-11-03T06:27:08.580Z,25.25
2022-11-03T06:29:37.186Z,24.90
2022-11-03T06:32:05.991Z,28.45
2022-11-03T06:34:47.738Z,27.38
2022-11-03T06:37:33.894Z,26.17
2022-11-03T06:40:22.518Z,24.83
2022-11-03T06:42:50.311Z,24.60
2022-11-03T06:45:23.025Z,24.15
2022-11-03T06:47:51.403Z,24.55
2022-11-03T06:50:44.622Z,26.45
2022-11-03T06:53:12.621Z,23.83
2022-11-03T06:55:41.009Z,21.55
2022-11-03T06:58:23.970Z,22.85
2022-11-03T07:00:52.220Z,23.52
2022-11-03T07:03:29.170Z,22.77
2022-11-03T07:06:11.200Z,20.02
2022-11-03T07:08:42.617Z,22.50
2022-11-03T07:11:19.209Z,22.27
2022-11-03T07:13:50.861Z,21.88
2022-11-03T07:16:38.621Z,19.30
2022-11-03T07:19:31.156Z,20.67
2022-11-03T07:22:00.055Z,21.08
2022-11-03T07:24:29.836Z,19.05
2022-11-03T07:27:42.358Z,20.70
2022-11-03T07:30:21.670Z,17.67
2022-11-03T07:32:52.455Z,19.40
2022-11-03T07:38:21.454Z,20.27
2022-11-03T07:40:49.795Z,20.25
2022-11-03T07:43:29.713Z,20.10
2022-11-03T07:45:59.271Z,20.85
2022-11-03T07:48:45.727Z,20.42
2022-11-03T07:51:23.839Z,20.58
2022-11-03T07:54:10.843Z,21.13
2022-11-03T07:56:40.274Z,19.42
2022-11-03T07:59:13.763Z,20.48
2022-11-03T08:01:54.101Z,21.25
2022-11-03T08:04:26.531Z,21.08
2022-11-03T08:06:54.508Z,20.92
2022-11-03T08:09:22.254Z,21.58
2022-11-03T08:11:50.982Z,22.25
2022-11-03T08:14:18.834Z,21.95
2022-11-03T08:16:49.433Z,20.77
2022-11-03T08:19:17.349Z,22.27
2022-11-03T08:21:45.627Z,21.52
2022-11-03T08:24:13.619Z,21.38
2022-11-03T08:26:41.351Z,20.52
2022-11-03T08:29:10.177Z,20.13
2022-11-03T08:31:39.537Z,19.25
2022-11-03T08:34:07.519Z,19.70
2022-11-03T08:36:36.802Z,20.33
2022-11-03T08:39:04.963Z,19.25
2022-11-03T10:44:19.932Z,14.50
2022-11-03T10:47:06.100Z,12.40
2022-11-03T10:52:40.094Z,13.73
2022-11-03T10:55:08.945Z,14.50
2022-11-03T10:57:37.662Z,13.05
2022-11-03T11:00:06.247Z,12.43
2022-11-03T11:02:36.686Z,12.43
2022-11-03T11:05:13.282Z,15.67
2022-11-03T11:07:43.814Z,12.05
2022-11-03T11:10:16.174Z,12.57
2022-11-03T11:13:03.498Z,20.08
2022-11-03T11:15:51.184Z,12.80
2022-11-03T11:18:29.520Z,11.63
2022-11-03T11:21:10.809Z,9.77
2022-11-03T11:23:39.323Z,10.88
2022-11-03T11:26:11.493Z,9.80
2022-11-03T11:28:47.216Z,10.10
2022-11-03T11:31:28.313Z,11.18
2022-11-03T11:34:17.499Z,12.50
2022-11-03T11:36:57.315Z,11.27
2022-11-03T11:39:28.106Z,10.50
2022-11-03T11:42:12.348Z,10.98
2022-11-03T11:44:51.848Z,9.40
2022-11-03T11:50:25.381Z,10.25
2022-11-03T11:53:11.470Z,9.57
2022-11-03T11:58:51.563Z,10.85
2022-11-03T12:01:23.530Z,12.50
2022-11-03T12:03:51.838Z,11.95
2022-11-03T12:06:35.188Z,12.15
2022-11-03T12:09:22.944Z,10.70
2022-11-03T12:11:56.203Z,11.10
2022-11-03T12:14:34.451Z,10.40
2022-11-03T12:17:22.476Z,11.15
2022-11-03T12:19:51.094Z,11.43
2022-11-03T12:22:24.854Z,10.23
2022-11-03T12:24:56.604Z,10.10
2022-11-03T12:27:24.156Z,12.50
2022-11-03T12:29:58.028Z,12.02
2022-11-03T12:32:34.160Z,12.60
2022-11-03T12:35:08.514Z,11.70
2022-11-03T12:37:36.788Z,10.38
2022-11-03T12:40:05.637Z,14.35
2022-11-03T12:42:33.336Z,11.70
2022-11-03T12:45:01.265Z,12.60
2022-11-03T12:47:29.063Z,10.57
2022-11-03T12:49:56.851Z,9.40
2022-11-03T12:52:24.912Z,11.68
2022-11-03T12:54:52.692Z,10.68
2022-11-03T12:57:20.861Z,11.32
2022-11-03T12:59:51.500Z,9.88
2022-11-03T13:02:19.446Z,10.07
2022-11-03T13:04:47.431Z,10.20
2022-11-03T13:07:16.473Z,12.40
2022-11-03T13:09:46.834Z,10.30
2022-11-03T13:12:32.543Z,10.40
2022-11-03T13:15:02.197Z,10.85
2022-11-03T13:17:35.944Z,10.60
2022-11-03T13:20:17.516Z,11.13
2022-11-03T13:22:45.597Z,10.77
2022-11-03T13:25:13.299Z,9.85
2022-11-03T13:27:41.126Z,10.27
2022-11-03T13:30:10.433Z,10.25
2022-11-03T13:32:38.622Z,10.90
2022-11-03T13:35:10.959Z,10.45
2022-11-03T13:37:41.906Z,11.02
2022-11-03T13:40:19.163Z,10.23
2022-11-03T13:42:57.247Z,10.32
2022-11-03T13:45:26.041Z,30.83
2022-11-03T13:50:42.652Z,44.17
2022-11-03T13:56:04.963Z,38.90
2022-11-03T14:01:25.076Z,13.45
2022-11-03T14:06:41.919Z,18.90
2022-11-03T14:09:09.607Z,18.33
2022-11-03T14:11:55.979Z,18.25
2022-11-03T14:14:24.157Z,18.88
2022-11-03T14:16:52.255Z,18.48
2022-11-03T14:19:20.276Z,19.45
2022-11-03T14:21:48.201Z,19.77
2022-11-03T14:24:16.092Z,32.92
2022-11-03T14:26:44.451Z,32.10
2022-11-03T14:29:12.135Z,30.83
2022-11-03T14:31:39.932Z,28.92
2022-11-03T14:34:07.699Z,32.53
2022-11-03T14:36:36.708Z,29.30
2022-11-03T14:39:04.679Z,23.02
2022-11-03T14:41:51.776Z,21.63
2022-11-03T14:44:19.800Z,24.58
2022-11-03T14:46:48.484Z,24.52
2022-11-03T14:49:16.459Z,24.77
2022-11-03T14:51:44.425Z,27.25
2022-11-03T14:54:12.959Z,26.45
2022-11-03T14:56:40.636Z,28.15
2022-11-03T14:59:08.317Z,28.30
2022-11-03T15:01:37.549Z,33.28
2022-11-03T15:04:05.605Z,30.60
2022-11-03T15:06:34.475Z,32.70
2022-11-03T15:09:03.739Z,30.95
2022-11-03T15:11:31.644Z,29.38
2022-11-03T15:14:02.807Z,34.67
2022-11-03T15:16:30.901Z,35.78
2022-11-03T15:18:59.557Z,36.75
2022-11-03T15:21:28.308Z,51.35
2022-11-03T15:26:45.034Z,69.68
2022-11-03T15:29:12.807Z,59.45
2022-11-03T15:31:46.197Z,124.00
2022-11-03T15:34:16.280Z,176.68
2022-11-03T15:36:44.026Z,55.17
2022-11-03T15:39:13.657Z,145.32
2022-11-03T15:41:42.667Z,51.30
2022-11-03T15:44:11.141Z,33.22
2022-11-03T15:46:38.973Z,36.30
2022-11-03T15:49:06.701Z,47.85
2022-11-03T15:51:34.468Z,53.55
2022-11-03T15:54:02.729Z,51.10
2022-11-03T15:56:30.613Z,52.83
2022-11-03T15:58:58.474Z,49.83
2022-11-03T16:01:26.604Z,47.90
2022-11-03T16:03:54.610Z,54.00
2022-11-03T16:06:40.267Z,50.15
2022-11-03T16:09:10.323Z,49.88
2022-11-03T16:11:38.017Z,54.30
2022-11-03T16:14:05.794Z,51.47
2022-11-03T16:16:33.910Z,47.13
2022-11-03T16:19:01.781Z,46.25
2022-11-03T16:21:30.136Z,46.13
2022-11-03T16:23:58.217Z,43.20
2022-11-03T16:26:25.964Z,48.42
2022-11-03T16:28:53.676Z,49.78
2022-11-03T16:31:21.479Z,49.10
2022-11-03T16:33:49.454Z,45.25
2022-11-03T16:36:18.864Z,48.38
2022-11-03T16:38:47.411Z,54.22
2022-11-03T16:41:15.268Z,49.30
2022-11-03T16:43:43.220Z,55.63
2022-11-03T16:46:10.941Z,57.75
2022-11-03T16:48:40.228Z,56.95
2022-11-03T16:51:08.398Z,58.13
2022-11-03T16:53:37.201Z,63.63
2022-11-03T16:56:05.336Z,69.07
2022-11-03T16:58:33.208Z,86.50
2022-11-03T17:01:01.871Z,101.20
2022-11-03T17:03:29.671Z,104.60
2022-11-03T17:05:58.221Z,102.18
2022-11-03T17:08:51.413Z,101.57
2022-11-03T17:11:14.563Z,104.47
2022-11-03T17:13:42.490Z,129.85
2022-11-03T17:16:11.626Z,153.05
2022-11-03T17:18:39.760Z,163.60
2022-11-03T17:21:07.652Z,157.20
2022-11-03T17:23:35.717Z,138.02
2022-11-03T19:48:41.019Z,19.70
2022-11-03T19:51:08.650Z,20.85
2022-11-03T19:53:36.210Z,21.65
2022-11-03T19:56:04.251Z,21.83
2022-11-03T19:58:31.991Z,22.67
2022-11-03T20:01:04.161Z,23.20
2022-11-03T20:03:35.122Z,24.02
2022-11-03T20:06:02.658Z,24.52
2022-11-03T20:08:32.393Z,24.75
2022-11-03T20:11:00.622Z,25.38
2022-11-03T20:13:39.580Z,28.40
2022-11-03T20:16:15.581Z,25.83
2022-11-03T20:18:43.992Z,26.13
2022-11-03T20:21:15.999Z,25.90
2022-11-03T20:23:43.778Z,26.52
2022-11-03T20:26:15.031Z,26.88
2022-11-03T20:28:45.032Z,26.75
2022-11-03T20:31:13.619Z,28.05
2022-11-03T20:33:41.355Z,26.20
2022-11-03T20:36:17.535Z,28.20
2022-11-03T20:38:59.464Z,33.70
2022-11-03T20:41:29.264Z,33.60
2022-11-03T20:43:56.949Z,24.60
2022-11-03T20:46:26.519Z,25.20
2022-11-03T20:48:55.518Z,26.60
2022-11-03T20:51:26.620Z,25.20
2022-11-03T20:53:55.862Z,27.58
2022-11-03T20:56:25.471Z,24.73
2022-11-03T20:58:53.330Z,31.27
2022-11-03T21:01:25.714Z,174.82
2022-11-03T21:04:01.571Z,30.50
2022-11-03T21:06:32.432Z,34.45
2022-11-03T21:09:00.279Z,26.35
2022-11-03T21:11:29.449Z,27.52
2022-11-03T21:14:01.395Z,26.30
2022-11-03T21:16:48.701Z,25.35
2022-11-03T21:19:36.071Z,26.85
2022-11-03T21:25:03.655Z,25.20
2022-11-03T21:27:32.192Z,21.70
2022-11-03T21:30:00.639Z,20.80
2022-11-03T21:32:28.339Z,20.05
2022-11-03T21:34:55.973Z,20.85
2022-11-03T21:37:23.829Z,17.92
2022-11-03T21:39:52.466Z,17.80
2022-11-03T21:42:38.552Z,18.88
2022-11-03T21:45:06.779Z,18.85
2022-11-03T21:47:34.459Z,17.52
2022-11-03T21:50:02.308Z,19.13
2022-11-03T21:52:33.056Z,18.67
2022-11-03T21:55:02.162Z,13.27
2022-11-03T21:57:29.836Z,15.55
2022-11-03T21:59:59.257Z,15.93
2022-11-03T22:02:27.945Z,16.48
2022-11-03T22:04:56.719Z,17.55
2022-11-03T22:07:24.409Z,18.20
2022-11-03T22:09:52.055Z,20.63
2022-11-03T22:12:19.717Z,21.02
2022-11-03T22:15:08.654Z,17.75
2022-11-03T22:17:37.777Z,23.42
2022-11-03T22:20:24.618Z,25.25
2022-11-03T22:23:10.647Z,27.40
2022-11-03T22:25:57.561Z,28.10
2022-11-03T22:28:25.161Z,30.65
2022-11-03T22:31:11.062Z,31.15
2022-11-03T22:33:58.639Z,32.30
2022-11-03T22:36:27.107Z,29.90
2022-11-03T22:39:23.750Z,29.38
2022-11-03T22:42:10.170Z,27.40
2022-11-03T22:44:56.247Z,27.52
2022-11-03T22:47:24.041Z,26.95
2022-11-03T22:49:51.606Z,26.63
2022-11-03T22:52:19.266Z,28.17
2022-11-03T22:54:47.272Z,25.55
2022-11-03T22:57:14.975Z,25.73
2022-11-03T22:59:42.771Z,22.50
2022-11-03T23:02:10.737Z,23.15
2022-11-03T23:04:38.319Z,20.98
2022-11-03T23:07:06.233Z,21.48
2022-11-03T23:09:38.195Z,18.45
2022-11-03T23:12:06.174Z,14.73
2022-11-03T23:14:53.913Z,15.68
2022-11-03T23:17:41.975Z,13.60
2022-11-03T23:20:28.101Z,12.43
2022-11-03T23:22:55.808Z,13.32
2022-11-03T23:25:23.442Z,13.05
2022-11-03T23:27:52.803Z,12.50
2022-11-03T23:30:20.709Z,13.20
2022-11-03T23:32:49.782Z,11.93
2022-11-03T23:35:17.809Z,11.63
2022-11-03T23:37:46.138Z,11.02
2022-11-03T23:40:17.184Z,10.15
2022-11-03T23:42:48.841Z,8.93
2022-11-03T23:45:35.433Z,8.50
2022-11-03T23:48:21.632Z,6.63
2022-11-03T23:50:50.991Z,7.32
2022-11-03T23:53:18.703Z,6.93
2022-11-03T23:56:04.790Z,6.97
2022-11-03T23:58:33.149Z,6.32
